createdAt,value
2023-05-08T00:01:19.280Z,1.83
2023-05-08T00:04:21.195Z,1.70
2023-05-08T00:07:23.438Z,2.50
2023-05-08T00:10:25.407Z,1.47
2023-05-08T00:13:27.402Z,1.30
2023-05-08T00:16:29.384Z,2.10
2023-05-08T00:19:31.945Z,1.53
2023-05-08T00:22:33.820Z,1.90
2023-05-08T00:25:35.812Z,1.57
2023-05-08T00:28:37.937Z,1.63
2023-05-08T00:31:40.235Z,2.23
2023-05-08T00:34:42.638Z,1.40
2023-05-08T00:37:44.633Z,2.40
2023-05-08T00:40:46.567Z,1.23
2023-05-08T00:43:48.477Z,2.50
2023-05-08T00:46:50.626Z,1.27
2023-05-08T00:49:53.231Z,2.63
2023-05-08T00:52:55.833Z,2.77
2023-05-08T00:55:59.788Z,7.20
2023-05-08T00:59:01.945Z,3.97
2023-05-08T01:02:04.354Z,1.10
2023-05-08T01:05:06.765Z,1.97
2023-05-08T01:08:08.782Z,2.63
2023-05-08T01:11:17.178Z,4.80
2023-05-08T01:14:54.092Z,5.43
2023-05-08T01:18:21.860Z,5.37
2023-05-08T01:21:28.106Z,1.40
2023-05-08T01:24:42.084Z,2.50
2023-05-08T01:28:05.354Z,1.60
2023-05-08T01:31:13.556Z,1.53
2023-05-08T01:34:27.164Z,1.10
2023-05-08T01:37:40.989Z,1.07
2023-05-08T01:41:00.681Z,1.30
2023-05-08T01:44:05.288Z,3.00
2023-05-08T01:47:08.235Z,2.47
2023-05-08T01:50:19.100Z,3.23
2023-05-08T01:53:57.627Z,3.17
2023-05-08T01:56:59.896Z,6.60
2023-05-08T02:00:03.831Z,5.73
2023-05-08T02:03:06.999Z,4.30
2023-05-08T02:06:09.911Z,5.03
2023-05-08T02:09:12.373Z,6.07
2023-05-08T02:12:16.218Z,2.83
2023-05-08T02:15:19.297Z,4.37
2023-05-08T02:18:22.536Z,3.57
2023-05-08T02:21:25.154Z,2.43
2023-05-08T02:24:27.469Z,4.60
2023-05-08T02:27:31.592Z,3.00
2023-05-08T02:30:34.111Z,6.13
2023-05-08T02:33:37.661Z,3.77
2023-05-08T02:36:40.339Z,4.60
2023-05-08T02:39:43.167Z,6.40
2023-05-08T02:42:45.509Z,4.00
2023-05-08T02:45:50.857Z,3.93
2023-05-08T02:49:28.311Z,4.13
2023-05-08T02:52:37.120Z,5.43
2023-05-08T02:55:41.229Z,6.97
2023-05-08T02:58:48.515Z,4.47
2023-05-08T03:01:57.188Z,4.40
2023-05-08T03:05:04.582Z,5.83
2023-05-08T03:08:16.755Z,8.43
2023-05-08T03:11:23.158Z,8.47
2023-05-08T03:14:27.378Z,9.20
2023-05-08T03:17:32.060Z,12.07
2023-05-08T03:20:38.214Z,9.83
2023-05-08T03:23:41.157Z,12.93
2023-05-08T03:26:43.986Z,13.07
2023-05-08T03:29:46.147Z,11.53
2023-05-08T03:32:48.494Z,18.07
2023-05-08T03:35:51.564Z,15.77
2023-05-08T03:38:53.505Z,13.43
2023-05-08T03:41:56.041Z,15.07
2023-05-08T03:44:58.239Z,12.50
2023-05-08T03:48:00.238Z,13.70
2023-05-08T03:51:03.515Z,12.50
2023-05-08T03:54:05.360Z,13.33
2023-05-08T03:57:07.516Z,13.57
2023-05-08T04:00:20.930Z,17.37
2023-05-08T04:03:38.756Z,14.40
2023-05-08T04:06:50.818Z,12.77
2023-05-08T04:10:03.315Z,16.17
2023-05-08T04:13:08.185Z,13.83
2023-05-08T04:16:27.636Z,16.13
2023-05-08T04:19:34.391Z,14.83
2023-05-08T04:22:40.325Z,14.53
2023-05-08T04:25:43.323Z,12.67
2023-05-08T04:28:46.972Z,12.20
2023-05-08T04:31:51.528Z,15.10
2023-05-08T04:34:53.562Z,14.10
2023-05-08T04:37:55.851Z,13.90
2023-05-08T04:40:57.824Z,12.10
2023-05-08T04:43:59.714Z,13.93
2023-05-08T04:47:01.748Z,12.97
2023-05-08T04:50:05.490Z,13.23
2023-05-08T04:53:07.444Z,14.83
2023-05-08T04:56:09.385Z,11.67
2023-05-08T04:59:12.483Z,13.40
2023-05-08T05:02:15.530Z,12.13
2023-05-08T05:05:17.603Z,15.77
2023-05-08T05:08:19.563Z,13.30
2023-05-08T05:11:21.668Z,13.67
2023-05-08T05:14:23.875Z,12.47
2023-05-08T05:17:25.878Z,12.80
2023-05-08T05:20:27.866Z,12.90
2023-05-08T05:23:29.674Z,13.33
2023-05-08T05:26:32.232Z,12.70
2023-05-08T05:29:34.134Z,16.47
2023-05-08T05:32:36.156Z,14.13
2023-05-08T05:35:37.969Z,11.37
2023-05-08T05:38:39.909Z,14.93
2023-05-08T05:41:44.589Z,12.90
2023-05-08T05:44:46.645Z,14.20
2023-05-08T05:47:50.499Z,15.97
2023-05-08T05:50:53.205Z,13.97
2023-05-08T05:53:55.401Z,12.03
2023-05-08T05:56:57.361Z,13.20
2023-05-08T06:00:00.253Z,13.40
2023-05-08T06:03:03.157Z,11.37
2023-05-08T06:06:05.804Z,11.47
2023-05-08T06:09:07.780Z,12.57
2023-05-08T06:12:09.925Z,12.83
2023-05-08T06:15:13.361Z,10.73
2023-05-08T06:18:15.913Z,12.60
2023-05-08T06:21:17.939Z,12.77
2023-05-08T06:24:19.881Z,12.27
2023-05-08T06:27:22.773Z,12.77
2023-05-08T06:30:24.630Z,10.73
2023-05-08T06:33:27.036Z,12.33
2023-05-08T06:36:29.060Z,13.50
2023-05-08T06:39:30.983Z,12.73
2023-05-08T06:42:32.907Z,16.40
2023-05-08T06:45:34.822Z,13.43
2023-05-08T06:48:36.693Z,15.70
2023-05-08T06:51:39.752Z,14.17
2023-05-08T06:54:42.241Z,16.40
2023-05-08T06:57:44.534Z,17.27
2023-05-08T07:00:46.425Z,21.20
2023-05-08T07:03:48.386Z,16.60
2023-05-08T07:06:50.861Z,16.67
2023-05-08T07:09:52.777Z,19.43
2023-05-08T07:12:54.718Z,17.27
2023-05-08T07:15:56.713Z,17.90
2023-05-08T07:18:58.639Z,17.63
2023-05-08T07:22:01.136Z,20.00
2023-05-08T07:25:03.026Z,18.73
2023-05-08T07:28:05.350Z,19.90
2023-05-08T07:31:07.773Z,20.17
2023-05-08T07:34:09.706Z,19.07
2023-05-08T07:37:12.249Z,21.60
2023-05-08T07:40:14.143Z,20.87
2023-05-08T07:43:16.129Z,21.23
2023-05-08T07:46:19.160Z,23.93
2023-05-08T07:49:21.543Z,18.83
2023-05-08T07:52:23.779Z,20.57
2023-05-08T07:55:25.752Z,23.50
2023-05-08T07:58:27.601Z,22.90
2023-05-08T08:01:29.473Z,28.87
2023-05-08T08:04:31.432Z,25.00
2023-05-08T08:07:33.431Z,23.60
2023-05-08T08:10:35.357Z,24.27
2023-05-08T08:13:37.499Z,21.27
2023-05-08T08:16:39.422Z,21.73
2023-05-08T08:19:41.352Z,20.90
2023-05-08T08:22:43.216Z,23.87
2023-05-08T08:25:45.168Z,23.73
2023-05-08T08:28:47.028Z,23.60
2023-05-08T08:31:48.980Z,25.37
2023-05-08T08:34:50.892Z,22.03
2023-05-08T08:37:52.806Z,19.83
2023-05-08T08:40:54.824Z,21.53
2023-05-08T08:43:56.870Z,24.67
2023-05-08T08:47:00.315Z,21.63
2023-05-08T08:50:05.573Z,26.10
2023-05-08T08:53:12.898Z,22.93
2023-05-08T08:56:15.938Z,22.33
2023-05-08T08:59:19.420Z,22.00
2023-05-08T09:02:23.190Z,21.50
2023-05-08T09:05:26.756Z,24.90
2023-05-08T09:08:28.903Z,24.23
2023-05-08T09:11:31.083Z,22.63
2023-05-08T09:14:35.668Z,23.00
2023-05-08T09:17:37.636Z,22.40
2023-05-08T09:20:41.575Z,22.97
2023-05-08T09:24:13.184Z,21.53
2023-05-08T09:27:22.788Z,22.17
2023-05-08T09:30:24.658Z,23.87
2023-05-08T09:33:28.800Z,26.60
2023-05-08T09:36:32.188Z,22.27
2023-05-08T09:39:34.954Z,18.53
2023-05-08T09:42:39.990Z,22.60
2023-05-08T09:45:42.876Z,23.00
2023-05-08T09:48:45.999Z,23.93
2023-05-08T09:51:55.055Z,23.80
2023-05-08T09:55:10.787Z,22.73
2023-05-08T09:58:12.805Z,19.73
2023-05-08T10:01:37.507Z,23.83
2023-05-08T10:04:39.809Z,20.07
2023-05-08T10:07:42.221Z,21.83
2023-05-08T10:10:44.233Z,20.27
2023-05-08T10:13:46.857Z,20.80
2023-05-08T10:16:50.346Z,17.30
2023-05-08T10:19:56.006Z,20.83
2023-05-08T10:22:58.932Z,18.87
2023-05-08T10:26:09.312Z,18.53
2023-05-08T10:29:19.796Z,21.07
2023-05-08T10:32:24.735Z,21.50
2023-05-08T10:35:28.211Z,21.30
2023-05-08T10:38:31.476Z,21.37
2023-05-08T10:41:33.761Z,18.10
2023-05-08T10:44:35.901Z,19.87
2023-05-08T10:48:15.348Z,22.53
2023-05-08T10:51:41.273Z,19.70
2023-05-08T10:55:04.822Z,21.17
2023-05-08T10:58:09.874Z,16.60
2023-05-08T11:01:13.337Z,17.20
2023-05-08T11:04:24.486Z,18.67
2023-05-08T11:07:58.342Z,17.95
2023-05-08T11:11:05.188Z,17.98
2023-05-08T11:14:07.138Z,15.63
2023-05-08T11:17:10.411Z,16.45
2023-05-08T11:20:12.462Z,15.85
2023-05-08T11:23:34.235Z,13.88
2023-05-08T11:26:42.868Z,13.48
2023-05-08T11:29:47.758Z,13.63
2023-05-08T11:33:05.327Z,15.07
2023-05-08T11:36:07.485Z,14.38
2023-05-08T11:39:13.306Z,17.38
2023-05-08T11:42:35.454Z,15.63
2023-05-08T11:45:39.229Z,18.00
2023-05-08T11:48:41.364Z,24.02
2023-05-08T11:51:48.650Z,19.33
2023-05-08T11:54:50.607Z,18.00
2023-05-08T11:57:56.164Z,20.23
2023-05-08T12:00:58.192Z,18.77
2023-05-08T12:04:10.832Z,18.70
2023-05-08T12:07:13.036Z,20.33
2023-05-08T12:10:16.471Z,21.70
2023-05-08T12:13:20.893Z,21.63
2023-05-08T12:16:24.398Z,20.08
2023-05-08T12:19:26.258Z,19.45
2023-05-08T12:22:28.326Z,21.23
2023-05-08T12:25:30.454Z,20.73
2023-05-08T12:28:35.767Z,23.35
2023-05-08T12:31:37.960Z,23.30
2023-05-08T12:34:39.895Z,22.05
2023-05-08T12:37:45.711Z,21.00
2023-05-08T12:40:53.554Z,19.65
2023-05-08T12:43:57.301Z,21.42
2023-05-08T12:46:59.751Z,23.23
2023-05-08T12:50:01.740Z,23.92
2023-05-08T12:53:05.192Z,20.63
2023-05-08T12:56:07.479Z,23.88
2023-05-08T12:59:09.457Z,22.27
2023-05-08T13:02:18.150Z,27.75
2023-05-08T13:05:22.429Z,19.92
2023-05-08T13:08:32.166Z,21.60
2023-05-08T13:11:34.765Z,22.70
2023-05-08T13:14:36.783Z,20.20
2023-05-08T13:17:38.726Z,21.00
2023-05-08T13:20:41.197Z,23.10
2023-05-08T13:23:43.699Z,25.63
2023-05-08T13:26:46.290Z,23.50
2023-05-08T13:29:48.171Z,19.58
2023-05-08T13:32:50.932Z,20.50
2023-05-08T13:35:54.236Z,19.95
2023-05-08T13:38:58.287Z,18.65
2023-05-08T13:42:00.195Z,23.23
2023-05-08T13:45:02.210Z,23.33
2023-05-08T13:48:04.290Z,20.07
2023-05-08T13:51:06.381Z,23.20
2023-05-08T13:54:08.647Z,22.13
2023-05-08T13:57:11.356Z,23.70
2023-05-08T14:00:13.801Z,23.48
2023-05-08T14:03:15.877Z,20.97
2023-05-08T14:06:17.810Z,21.93
2023-05-08T14:09:19.835Z,21.93
2023-05-08T14:12:21.850Z,24.03
2023-05-08T14:15:27.039Z,23.80
2023-05-08T14:18:36.648Z,19.87
2023-05-08T14:21:39.215Z,20.43
2023-05-08T14:24:41.243Z,20.47
2023-05-08T14:27:43.186Z,18.77
2023-05-08T14:30:44.973Z,19.10
2023-05-08T14:33:46.758Z,19.93
2023-05-08T14:36:48.683Z,21.53
2023-05-08T14:39:54.217Z,19.17
2023-05-08T14:42:56.357Z,21.30
2023-05-08T14:45:58.432Z,18.20
2023-05-08T14:49:00.339Z,19.63
2023-05-08T14:52:02.881Z,19.83
2023-05-08T14:55:05.367Z,18.53
2023-05-08T14:58:07.696Z,20.83
2023-05-08T15:01:10.404Z,16.57
2023-05-08T15:04:12.551Z,17.97
2023-05-08T15:07:14.443Z,17.40
2023-05-08T15:10:16.583Z,19.73
2023-05-08T15:13:18.926Z,17.93
2023-05-08T15:16:21.269Z,16.23
2023-05-08T15:19:23.170Z,16.93
2023-05-08T15:22:26.429Z,17.53
2023-05-08T15:25:29.052Z,19.13
2023-05-08T15:28:31.256Z,16.70
2023-05-08T15:31:33.128Z,19.87
2023-05-08T15:34:35.032Z,17.70
2023-05-08T15:37:38.342Z,15.83
2023-05-08T15:40:40.762Z,16.00
2023-05-08T15:43:45.406Z,16.37
2023-05-08T15:46:48.144Z,15.53
2023-05-08T15:49:59.061Z,15.17
2023-05-08T15:53:01.020Z,15.30
2023-05-08T15:56:05.956Z,18.17
2023-05-08T15:59:08.355Z,14.20
2023-05-08T16:02:10.546Z,16.40
2023-05-08T16:05:12.859Z,15.97
2023-05-08T16:08:15.062Z,16.63
2023-05-08T16:11:17.006Z,16.23
2023-05-08T16:14:20.185Z,16.20
2023-05-08T16:17:22.049Z,15.73
2023-05-08T16:20:24.335Z,17.07
2023-05-08T16:23:26.493Z,19.00
2023-05-08T16:26:28.546Z,17.37
2023-05-08T16:29:30.403Z,17.37
2023-05-08T16:32:32.344Z,16.50
2023-05-08T16:35:34.328Z,16.87
2023-05-08T16:38:36.293Z,15.30
2023-05-08T16:41:38.157Z,16.63
2023-05-08T16:44:40.187Z,17.07
2023-05-08T16:47:42.248Z,15.20
2023-05-08T16:50:44.198Z,16.13
2023-05-08T16:53:46.012Z,18.40
2023-05-08T16:56:47.935Z,19.43
2023-05-08T16:59:50.035Z,17.40
2023-05-08T17:02:52.325Z,19.60
2023-05-08T17:05:54.316Z,19.50
2023-05-08T17:08:56.117Z,18.57
2023-05-08T17:11:59.750Z,18.03
2023-05-08T17:15:01.834Z,16.27
2023-05-08T17:18:03.985Z,18.60
2023-05-08T17:21:06.017Z,15.67
2023-05-08T17:24:08.256Z,16.13
2023-05-08T17:27:10.733Z,16.47
2023-05-08T17:30:15.137Z,20.23
2023-05-08T17:33:17.802Z,16.43
2023-05-08T17:36:19.665Z,16.20
2023-05-08T17:39:22.093Z,16.83
2023-05-08T17:42:24.216Z,15.70
2023-05-08T17:45:26.902Z,16.07
2023-05-08T17:48:28.764Z,17.40
2023-05-08T17:51:31.260Z,18.53
2023-05-08T17:54:33.377Z,14.87
2023-05-08T17:57:35.336Z,15.63
2023-05-08T18:00:38.084Z,16.77
2023-05-08T18:03:40.012Z,15.63
2023-05-08T18:06:43.644Z,16.80
2023-05-08T18:09:45.653Z,15.63
2023-05-08T18:12:48.022Z,16.63
2023-05-08T18:15:50.276Z,17.33
2023-05-08T18:18:52.811Z,16.57
2023-05-08T18:21:54.663Z,16.53
2023-05-08T18:24:57.931Z,16.23
2023-05-08T18:28:01.014Z,14.60
2023-05-08T18:31:04.041Z,13.73
2023-05-08T18:34:06.460Z,15.23
2023-05-08T18:37:08.557Z,13.67
2023-05-08T18:40:11.084Z,14.60
2023-05-08T18:43:13.105Z,13.83
2023-05-08T18:46:14.983Z,15.17
2023-05-08T18:49:17.003Z,18.80
2023-05-08T18:52:18.942Z,17.77
2023-05-08T18:55:20.910Z,13.73
2023-05-08T18:58:22.773Z,13.20
2023-05-08T19:01:27.753Z,15.77
2023-05-08T19:04:29.637Z,14.60
2023-05-08T19:07:32.074Z,16.10
2023-05-08T19:10:34.361Z,13.50
2023-05-08T19:13:37.094Z,17.60
2023-05-08T19:16:39.367Z,14.57
2023-05-08T19:19:41.320Z,14.47
2023-05-08T19:22:43.367Z,11.97
2023-05-08T19:25:45.504Z,13.13
2023-05-08T19:28:47.352Z,13.57
2023-05-08T19:31:49.494Z,13.07
2023-05-08T19:34:51.413Z,13.20
2023-05-08T19:37:53.622Z,11.97
2023-05-08T19:40:57.622Z,15.33
2023-05-08T19:44:00.289Z,12.40
2023-05-08T19:47:03.914Z,14.07
2023-05-08T19:50:07.554Z,15.97
2023-05-08T19:53:10.620Z,14.30
2023-05-08T19:56:12.801Z,12.60
2023-05-08T19:59:14.725Z,11.23
2023-05-08T20:02:17.048Z,11.53
2023-05-08T20:05:31.346Z,11.43
2023-05-08T20:08:34.169Z,12.60
2023-05-08T20:11:35.960Z,12.13
2023-05-08T20:14:38.298Z,9.20
2023-05-08T20:17:40.193Z,11.67
2023-05-08T20:20:42.232Z,9.47
2023-05-08T20:23:44.079Z,11.13
2023-05-08T20:26:46.033Z,10.00
2023-05-08T20:29:47.946Z,10.00
2023-05-08T20:32:49.986Z,8.17
2023-05-08T20:35:53.456Z,7.93
2023-05-08T20:38:55.436Z,7.23
2023-05-08T20:41:57.286Z,8.83
2023-05-08T20:44:59.293Z,7.67
2023-05-08T20:48:01.687Z,8.83
2023-05-08T20:51:04.210Z,8.40
2023-05-08T20:54:06.121Z,7.33
2023-05-08T20:57:08.455Z,7.97
2023-05-08T21:00:10.890Z,8.33
2023-05-08T21:03:13.888Z,8.63
2023-05-08T21:06:15.728Z,8.50
2023-05-08T21:09:17.703Z,9.97
2023-05-08T21:12:19.633Z,7.93
2023-05-08T21:15:21.571Z,7.60
2023-05-08T21:18:23.680Z,8.90
2023-05-08T21:21:25.668Z,7.37
2023-05-08T21:24:28.947Z,6.90
2023-05-08T21:27:31.204Z,6.50
2023-05-08T21:30:34.883Z,12.40
2023-05-08T21:33:38.715Z,7.10
2023-05-08T21:36:40.781Z,6.90
2023-05-08T21:39:43.469Z,8.83
2023-05-08T21:42:45.424Z,7.93
2023-05-08T21:45:47.308Z,6.87
2023-05-08T21:48:49.504Z,8.03
2023-05-08T21:51:53.162Z,8.57
2023-05-08T21:54:55.776Z,7.73
2023-05-08T21:57:57.551Z,6.93
2023-05-08T22:00:59.420Z,8.30
2023-05-08T22:04:01.405Z,7.57
2023-05-08T22:07:03.488Z,7.97
2023-05-08T22:10:06.022Z,7.87
2023-05-08T22:13:08.033Z,7.53
2023-05-08T22:16:09.981Z,8.60
2023-05-08T22:19:11.975Z,9.17
2023-05-08T22:22:13.805Z,13.53
2023-05-08T22:25:16.078Z,8.23
2023-05-08T22:28:18.289Z,7.80
2023-05-08T22:31:20.198Z,6.57
2023-05-08T22:34:22.449Z,7.57
2023-05-08T22:37:25.024Z,6.53
2023-05-08T22:40:27.729Z,6.17
2023-05-08T22:43:29.629Z,6.13
2023-05-08T22:46:33.464Z,5.67
2023-05-08T22:49:35.578Z,7.97
2023-05-08T22:52:38.717Z,6.93
2023-05-08T22:55:40.758Z,7.83
2023-05-08T22:58:42.645Z,6.40
2023-05-08T23:01:44.577Z,6.77
2023-05-08T23:04:47.034Z,8.23
2023-05-08T23:07:49.110Z,8.63
2023-05-08T23:10:51.142Z,6.93
2023-05-08T23:13:53.317Z,8.20
2023-05-08T23:16:55.309Z,7.87
2023-05-08T23:19:57.251Z,7.97
2023-05-08T23:22:59.237Z,7.70
2023-05-08T23:26:04.912Z,8.73
2023-05-08T23:29:07.140Z,7.63
2023-05-08T23:32:09.019Z,9.23
2023-05-08T23:35:11.190Z,13.30
2023-05-08T23:38:13.093Z,13.20
2023-05-08T23:41:15.036Z,10.87
2023-05-08T23:44:17.994Z,8.87
2023-05-08T23:47:21.223Z,9.23
2023-05-08T23:50:23.476Z,11.60
2023-05-08T23:53:25.702Z,9.50
2023-05-08T23:56:27.656Z,10.43
2023-05-08T23:59:29.555Z,8.13
